sensor_id;sensor_type;location;lat;lon;timestamp;temperature;humidity
15259;DHT22;34462;51.368;12.364;2024-02-23T00:00:16;11.40;99.90
15259;DHT22;34462;51.368;12.364;2024-02-23T00:02:45;11.40;99.90
15259;DHT22;34462;51.368;12.364;2024-02-23T00:05:13;11.30;99.90
15259;DHT22;34462;51.368;12.364;2024-02-23T00:07:41;11.40;99.90
15259;DHT22;34462;51.368;12.364;2024-02-23T00:10:10;11.50;99.90
15259;DHT22;34462;51.368;12.364;2024-02-23T00:12:39;11.70;99.90
15259;DHT22;34462;51.368;12.364;2024-02-23T00:15:11;11.80;99.90
15259;DHT22;34462;51.368;12.364;2024-02-23T00:17:39;11.80;99.90
15259;DHT22;34462;51.368;12.364;2024-02-23T00:20:09;11.90;99.90
15259;DHT22;34462;51.368;12.364;2024-02-23T00:22:39;11.90;99.90
15259;DHT22;34462;51.368;12.364;2024-02-23T00:25:07;12.00;99.90
15259;DHT22;34462;51.368;12.364;2024-02-23T00:27:36;12.00;99.90
15259;DHT22;34462;51.368;12.364;2024-02-23T00:30:08;12.00;99.90
15259;DHT22;34462;51.368;12.364;2024-02-23T00:32:37;11.90;99.90
15259;DHT22;34462;51.368;12.364;2024-02-23T00:35:05;11.90;99.90
15259;DHT22;34462;51.368;12.364;2024-02-23T00:37:34;12.00;99.90
15259;DHT22;34462;51.368;12.364;2024-02-23T00:40:03;12.00;99.90
15259;DHT22;34462;51.368;12.364;2024-02-23T00:42:32;11.90;99.90
15259;DHT22;34462;51.368;12.364;2024-02-23T00:45:00;11.80;99.90
15259;DHT22;34462;51.368;12.364;2024-02-23T00:47:30;11.70;99.90
15259;DHT22;34462;51.368;12.364;2024-02-23T00:49:58;11.70;99.90
15259;DHT22;34462;51.368;12.364;2024-02-23T00:52:27;11.60;99.90
15259;DHT22;34462;51.368;12.364;2024-02-23T00:54:59;11.50;99.90
15259;DHT22;34462;51.368;12.364;2024-02-23T00:57:29;11.50;99.90
15259;DHT22;34462;51.368;12.364;2024-02-23T00:59:58;11.50;99.90
15259;DHT22;34462;51.368;12.364;2024-02-23T01:02:26;11.60;99.90
15259;DHT22;34462;51.368;12.364;2024-02-23T01:04:56;11.50;99.90
15259;DHT22;34462;51.368;12.364;2024-02-23T01:07:25;11.50;99.90
15259;DHT22;34462;51.368;12.364;2024-02-23T01:09:56;11.50;99.90
15259;DHT22;34462;51.368;12.364;2024-02-23T01:12:25;11.50;99.90
15259;DHT22;34462;51.368;12.364;2024-02-23T01:14:53;11.40;99.90
15259;DHT22;34462;51.368;12.364;2024-02-23T01:17:22;11.50;99.90
15259;DHT22;34462;51.368;12.364;2024-02-23T01:19:50;11.60;99.90
15259;DHT22;34462;51.368;12.364;2024-02-23T01:22:20;11.50;99.90
15259;DHT22;34462;51.368;12.364;2024-02-23T01:24:48;11.60;99.90
15259;DHT22;34462;51.368;12.364;2024-02-23T01:27:16;11.60;99.90
15259;DHT22;34462;51.368;12.364;2024-02-23T01:29:45;11.60;99.90
15259;DHT22;34462;51.368;12.364;2024-02-23T01:32:13;11.60;99.90
15259;DHT22;34462;51.368;12.364;2024-02-23T01:34:41;11.60;99.90
15259;DHT22;34462;51.368;12.364;2024-02-23T01:37:12;11.50;99.90
15259;DHT22;34462;51.368;12.364;2024-02-23T01:39:41;11.30;99.90
15259;DHT22;34462;51.368;12.364;2024-02-23T01:42:09;11.10;99.90
15259;DHT22;34462;51.368;12.364;2024-02-23T01:44:38;11.00;99.90
15259;DHT22;34462;51.368;12.364;2024-02-23T01:47:06;11.00;99.90
15259;DHT22;34462;51.368;12.364;2024-02-23T01:49:35;10.90;99.90
15259;DHT22;34462;51.368;12.364;2024-02-23T01:52:05;11.00;99.90
15259;DHT22;34462;51.368;12.364;2024-02-23T01:54:33;10.90;99.90
15259;DHT22;34462;51.368;12.364;2024-02-23T01:57:03;10.80;99.90
15259;DHT22;34462;51.368;12.364;2024-02-23T01:59:52;10.80;99.90
15259;DHT22;34462;51.368;12.364;2024-02-23T02:02:20;10.80;99.90
15259;DHT22;34462;51.368;12.364;2024-02-23T02:04:49;10.70;99.90
15259;DHT22;34462;51.368;12.364;2024-02-23T02:07:18;10.70;99.90
15259;DHT22;34462;51.368;12.364;2024-02-23T02:09:49;10.70;99.90
15259;DHT22;34462;51.368;12.364;2024-02-23T02:12:28;10.70;99.90
15259;DHT22;34462;51.368;12.364;2024-02-23T02:14:57;10.70;99.90
15259;DHT22;34462;51.368;12.364;2024-02-23T02:17:29;10.60;99.90
15259;DHT22;34462;51.368;12.364;2024-02-23T02:20:04;10.60;99.90
15259;DHT22;34462;51.368;12.364;2024-02-23T02:22:37;10.60;99.90
15259;DHT22;34462;51.368;12.364;2024-02-23T02:25:06;10.60;99.90
15259;DHT22;34462;51.368;12.364;2024-02-23T02:27:41;10.60;99.90
15259;DHT22;34462;51.368;12.364;2024-02-23T02:30:12;10.50;99.90
15259;DHT22;34462;51.368;12.364;2024-02-23T02:32:41;10.50;99.90
15259;DHT22;34462;51.368;12.364;2024-02-23T02:35:10;10.30;99.90
15259;DHT22;34462;51.368;12.364;2024-02-23T02:37:40;10.20;99.90
15259;DHT22;34462;51.368;12.364;2024-02-23T02:40:11;10.20;99.90
15259;DHT22;34462;51.368;12.364;2024-02-23T02:42:40;10.10;99.90
15259;DHT22;34462;51.368;12.364;2024-02-23T02:45:10;10.10;99.90
15259;DHT22;34462;51.368;12.364;2024-02-23T02:47:38;10.10;99.90
15259;DHT22;34462;51.368;12.364;2024-02-23T02:50:07;10.10;99.90
15259;DHT22;34462;51.368;12.364;2024-02-23T02:52:37;10.10;99.90
15259;DHT22;34462;51.368;12.364;2024-02-23T02:55:06;10.00;99.90
15259;DHT22;34462;51.368;12.364;2024-02-23T02:57:35;10.00;99.90
15259;DHT22;34462;51.368;12.364;2024-02-23T03:00:09;9.90;99.90
15259;DHT22;34462;51.368;12.364;2024-02-23T03:02:38;9.60;99.90
15259;DHT22;34462;51.368;12.364;2024-02-23T03:05:07;9.80;99.90
15259;DHT22;34462;51.368;12.364;2024-02-23T03:07:36;9.80;99.90
15259;DHT22;34462;51.368;12.364;2024-02-23T03:10:06;9.90;99.90
15259;DHT22;34462;51.368;12.364;2024-02-23T03:12:35;10.00;99.90
15259;DHT22;34462;51.368;12.364;2024-02-23T03:15:05;9.90;99.90
15259;DHT22;34462;51.368;12.364;2024-02-23T03:17:35;9.90;99.90
15259;DHT22;34462;51.368;12.364;2024-02-23T03:20:04;10.00;99.90
15259;DHT22;34462;51.368;12.364;2024-02-23T03:22:37;10.00;99.90
15259;DHT22;34462;51.368;12.364;2024-02-23T03:25:06;10.00;99.90
15259;DHT22;34462;51.368;12.364;2024-02-23T03:27:38;9.90;99.90
15259;DHT22;34462;51.368;12.364;2024-02-23T03:30:11;9.90;99.90
15259;DHT22;34462;51.368;12.364;2024-02-23T03:32:39;9.80;99.90
15259;DHT22;34462;51.368;12.364;2024-02-23T03:35:09;9.70;99.90
15259;DHT22;34462;51.368;12.364;2024-02-23T03:37:37;9.70;99.90
15259;DHT22;34462;51.368;12.364;2024-02-23T03:40:07;9.60;99.90
15259;DHT22;34462;51.368;12.364;2024-02-23T03:42:37;9.40;99.90
15259;DHT22;34462;51.368;12.364;2024-02-23T03:45:08;9.30;99.90
15259;DHT22;34462;51.368;12.364;2024-02-23T03:47:39;9.20;99.90
15259;DHT22;34462;51.368;12.364;2024-02-23T03:50:09;9.00;99.90
15259;DHT22;34462;51.368;12.364;2024-02-23T03:52:38;8.90;99.90
15259;DHT22;34462;51.368;12.364;2024-02-23T03:55:06;8.80;99.90
15259;DHT22;34462;51.368;12.364;2024-02-23T03:57:35;8.70;99.90
15259;DHT22;34462;51.368;12.364;2024-02-23T04:00:04;8.60;99.90
15259;DHT22;34462;51.368;12.364;2024-02-23T04:02:35;8.60;99.90
15259;DHT22;34462;51.368;12.364;2024-02-23T04:05:04;8.50;99.90
15259;DHT22;34462;51.368;12.364;2024-02-23T04:07:33;8.40;99.90
15259;DHT22;34462;51.368;12.364;2024-02-23T04:10:02;8.40;99.90
15259;DHT22;34462;51.368;12.364;2024-02-23T04:12:31;8.40;99.90
15259;DHT22;34462;51.368;12.364;2024-02-23T04:14:59;8.30;99.90
15259;DHT22;34462;51.368;12.364;2024-02-23T04:17:29;8.30;99.90
15259;DHT22;34462;51.368;12.364;2024-02-23T04:19:57;8.30;99.90
15259;DHT22;34462;51.368;12.364;2024-02-23T04:22:28;8.30;99.90
15259;DHT22;34462;51.368;12.364;2024-02-23T04:24:56;8.20;99.90
15259;DHT22;34462;51.368;12.364;2024-02-23T04:27:25;8.10;99.90
15259;DHT22;34462;51.368;12.364;2024-02-23T04:29:53;8.10;99.90
15259;DHT22;34462;51.368;12.364;2024-02-23T04:32:21;8.00;99.90
15259;DHT22;34462;51.368;12.364;2024-02-23T04:34:52;8.00;99.90
15259;DHT22;34462;51.368;12.364;2024-02-23T04:37:20;7.90;99.90
15259;DHT22;34462;51.368;12.364;2024-02-23T04:39:51;7.90;99.90
15259;DHT22;34462;51.368;12.364;2024-02-23T04:42:19;7.80;99.90
15259;DHT22;34462;51.368;12.364;2024-02-23T04:44:47;7.80;99.90
15259;DHT22;34462;51.368;12.364;2024-02-23T04:47:16;7.80;99.90
15259;DHT22;34462;51.368;12.364;2024-02-23T04:49:45;7.90;99.90
15259;DHT22;34462;51.368;12.364;2024-02-23T04:52:14;7.70;99.90
15259;DHT22;34462;51.368;12.364;2024-02-23T04:54:43;7.70;99.90
15259;DHT22;34462;51.368;12.364;2024-02-23T04:57:11;7.60;99.90
15259;DHT22;34462;51.368;12.364;2024-02-23T04:59:40;7.70;99.90
15259;DHT22;34462;51.368;12.364;2024-02-23T05:02:08;7.60;99.90
15259;DHT22;34462;51.368;12.364;2024-02-23T05:04:36;7.60;99.90
15259;DHT22;34462;51.368;12.364;2024-02-23T05:07:05;7.60;99.90
15259;DHT22;34462;51.368;12.364;2024-02-23T05:09:34;7.50;99.90
15259;DHT22;34462;51.368;12.364;2024-02-23T05:12:03;7.50;99.90
15259;DHT22;34462;51.368;12.364;2024-02-23T05:14:31;7.50;99.90
15259;DHT22;34462;51.368;12.364;2024-02-23T05:17:00;7.50;99.90
15259;DHT22;34462;51.368;12.364;2024-02-23T05:19:30;7.60;99.90
15259;DHT22;34462;51.368;12.364;2024-02-23T05:21:58;7.60;99.90
15259;DHT22;34462;51.368;12.364;2024-02-23T05:24:27;7.70;99.90
15259;DHT22;34462;51.368;12.364;2024-02-23T05:27:00;7.80;99.90
15259;DHT22;34462;51.368;12.364;2024-02-23T05:29:29;7.90;99.90
15259;DHT22;34462;51.368;12.364;2024-02-23T05:31:59;8.00;99.90
15259;DHT22;34462;51.368;12.364;2024-02-23T05:34:27;8.00;99.90
15259;DHT22;34462;51.368;12.364;2024-02-23T05:36:55;8.00;99.90
15259;DHT22;34462;51.368;12.364;2024-02-23T05:39:23;8.00;99.90
15259;DHT22;34462;51.368;12.364;2024-02-23T05:41:52;8.00;99.90
15259;DHT22;34462;51.368;12.364;2024-02-23T05:44:21;8.00;99.90
15259;DHT22;34462;51.368;12.364;2024-02-23T05:46:50;7.90;99.90
15259;DHT22;34462;51.368;12.364;2024-02-23T05:49:18;7.90;99.90
15259;DHT22;34462;51.368;12.364;2024-02-23T05:51:46;7.90;99.90
15259;DHT22;34462;51.368;12.364;2024-02-23T05:54:18;7.80;99.90
15259;DHT22;34462;51.368;12.364;2024-02-23T05:56:46;7.80;99.90
15259;DHT22;34462;51.368;12.364;2024-02-23T05:59:15;7.70;99.90
15259;DHT22;34462;51.368;12.364;2024-02-23T06:01:45;7.80;99.90
15259;DHT22;34462;51.368;12.364;2024-02-23T06:04:13;7.70;99.90
15259;DHT22;34462;51.368;12.364;2024-02-23T06:06:41;7.70;99.90
15259;DHT22;34462;51.368;12.364;2024-02-23T06:09:10;7.60;99.90
15259;DHT22;34462;51.368;12.364;2024-02-23T06:11:39;7.60;99.90
15259;DHT22;34462;51.368;12.364;2024-02-23T06:14:07;7.60;99.90
15259;DHT22;34462;51.368;12.364;2024-02-23T06:16:35;7.50;99.90
15259;DHT22;34462;51.368;12.364;2024-02-23T06:19:05;7.50;99.90
15259;DHT22;34462;51.368;12.364;2024-02-23T06:21:36;7.50;99.90
15259;DHT22;34462;51.368;12.364;2024-02-23T06:24:04;7.40;99.90
15259;DHT22;34462;51.368;12.364;2024-02-23T06:26:35;7.40;99.90
15259;DHT22;34462;51.368;12.364;2024-02-23T06:29:03;7.40;99.90
15259;DHT22;34462;51.368;12.364;2024-02-23T06:31:32;7.50;99.90
15259;DHT22;34462;51.368;12.364;2024-02-23T06:34:01;7.50;99.90
15259;DHT22;34462;51.368;12.364;2024-02-23T06:36:32;7.50;99.90
15259;DHT22;34462;51.368;12.364;2024-02-23T06:39:00;7.40;99.90
15259;DHT22;34462;51.368;12.364;2024-02-23T06:41:29;7.40;99.90
15259;DHT22;34462;51.368;12.364;2024-02-23T06:43:58;7.40;99.90
15259;DHT22;34462;51.368;12.364;2024-02-23T06:46:26;7.50;99.90
15259;DHT22;34462;51.368;12.364;2024-02-23T06:48:55;7.60;99.90
15259;DHT22;34462;51.368;12.364;2024-02-23T06:51:23;7.60;99.90
15259;DHT22;34462;51.368;12.364;2024-02-23T06:53:53;7.60;99.90
15259;DHT22;34462;51.368;12.364;2024-02-23T06:56:23;7.60;99.90
15259;DHT22;34462;51.368;12.364;2024-02-23T06:58:51;7.60;99.90
15259;DHT22;34462;51.368;12.364;2024-02-23T07:01:20;7.50;99.90
15259;DHT22;34462;51.368;12.364;2024-02-23T07:03:49;7.60;99.90
15259;DHT22;34462;51.368;12.364;2024-02-23T07:06:18;7.60;99.90
15259;DHT22;34462;51.368;12.364;2024-02-23T07:08:46;7.70;99.90
15259;DHT22;34462;51.368;12.364;2024-02-23T07:11:16;7.70;99.90
15259;DHT22;34462;51.368;12.364;2024-02-23T07:13:45;7.70;99.90
15259;DHT22;34462;51.368;12.364;2024-02-23T07:16:15;7.70;99.90
15259;DHT22;34462;51.368;12.364;2024-02-23T07:18:43;7.80;99.90
15259;DHT22;34462;51.368;12.364;2024-02-23T07:21:12;7.80;99.90
15259;DHT22;34462;51.368;12.364;2024-02-23T07:23:41;7.90;99.90
15259;DHT22;34462;51.368;12.364;2024-02-23T07:26:09;7.90;99.90
15259;DHT22;34462;51.368;12.364;2024-02-23T07:28:39;7.90;99.90
15259;DHT22;34462;51.368;12.364;2024-02-23T07:31:07;8.00;99.90
15259;DHT22;34462;51.368;12.364;2024-02-23T07:33:37;8.00;99.90
15259;DHT22;34462;51.368;12.364;2024-02-23T07:36:06;8.00;99.90
15259;DHT22;34462;51.368;12.364;2024-02-23T07:38:35;8.00;99.90
15259;DHT22;34462;51.368;12.364;2024-02-23T07:41:03;8.10;99.90
15259;DHT22;34462;51.368;12.364;2024-02-23T07:43:32;8.10;99.90
15259;DHT22;34462;51.368;12.364;2024-02-23T07:46:02;8.10;99.90
15259;DHT22;34462;51.368;12.364;2024-02-23T07:48:31;8.10;99.90
15259;DHT22;34462;51.368;12.364;2024-02-23T07:51:00;8.20;99.90
15259;DHT22;34462;51.368;12.364;2024-02-23T07:53:28;8.10;99.90
15259;DHT22;34462;51.368;12.364;2024-02-23T07:55:56;8.10;99.90
15259;DHT22;34462;51.368;12.364;2024-02-23T07:58:26;8.10;99.90
15259;DHT22;34462;51.368;12.364;2024-02-23T08:00:57;8.10;99.90
15259;DHT22;34462;51.368;12.364;2024-02-23T08:03:26;8.10;99.90
15259;DHT22;34462;51.368;12.364;2024-02-23T08:05:59;8.10;99.90
15259;DHT22;34462;51.368;12.364;2024-02-23T08:08:33;8.10;99.90
15259;DHT22;34462;51.368;12.364;2024-02-23T08:11:03;8.10;99.90
15259;DHT22;34462;51.368;12.364;2024-02-23T08:13:33;8.10;99.90
15259;DHT22;34462;51.368;12.364;2024-02-23T08:16:02;8.10;99.90
15259;DHT22;34462;51.368;12.364;2024-02-23T08:18:34;8.20;99.90
15259;DHT22;34462;51.368;12.364;2024-02-23T08:21:03;8.20;99.90
15259;DHT22;34462;51.368;12.364;2024-02-23T08:23:33;8.20;99.90
15259;DHT22;34462;51.368;12.364;2024-02-23T08:26:02;8.40;99.90
15259;DHT22;34462;51.368;12.364;2024-02-23T08:28:33;8.30;99.90
15259;DHT22;34462;51.368;12.364;2024-02-23T08:31:02;8.50;99.90
15259;DHT22;34462;51.368;12.364;2024-02-23T08:33:34;8.50;99.90
15259;DHT22;34462;51.368;12.364;2024-02-23T08:36:02;8.60;99.90
15259;DHT22;34462;51.368;12.364;2024-02-23T08:38:34;8.80;99.90
15259;DHT22;34462;51.368;12.364;2024-02-23T08:41:02;8.90;99.90
15259;DHT22;34462;51.368;12.364;2024-02-23T08:43:33;9.00;99.90
15259;DHT22;34462;51.368;12.364;2024-02-23T08:46:01;9.10;99.90
15259;DHT22;34462;51.368;12.364;2024-02-23T08:48:37;9.10;99.90
15259;DHT22;34462;51.368;12.364;2024-02-23T08:51:05;9.00;99.90
15259;DHT22;34462;51.368;12.364;2024-02-23T08:53:34;9.10;99.90
15259;DHT22;34462;51.368;12.364;2024-02-23T08:56:02;9.20;99.90
15259;DHT22;34462;51.368;12.364;2024-02-23T08:58:31;9.30;99.90
15259;DHT22;34462;51.368;12.364;2024-02-23T09:00:59;9.30;99.90
15259;DHT22;34462;51.368;12.364;2024-02-23T09:03:27;9.30;99.90
15259;DHT22;34462;51.368;12.364;2024-02-23T09:05:57;9.30;99.90
15259;DHT22;34462;51.368;12.364;2024-02-23T09:08:26;9.30;99.90
15259;DHT22;34462;51.368;12.364;2024-02-23T09:10:54;9.40;99.90
15259;DHT22;34462;51.368;12.364;2024-02-23T09:13:23;9.40;99.90
15259;DHT22;34462;51.368;12.364;2024-02-23T09:15:53;9.40;99.90
15259;DHT22;34462;51.368;12.364;2024-02-23T09:18:21;9.40;99.90
15259;DHT22;34462;51.368;12.364;2024-02-23T09:20:49;9.50;99.90
15259;DHT22;34462;51.368;12.364;2024-02-23T09:23:19;9.60;99.90
15259;DHT22;34462;51.368;12.364;2024-02-23T09:25:48;9.80;99.90
15259;DHT22;34462;51.368;12.364;2024-02-23T09:28:17;9.80;99.90
15259;DHT22;34462;51.368;12.364;2024-02-23T09:30:45;9.80;99.90
15259;DHT22;34462;51.368;12.364;2024-02-23T09:33:13;9.80;99.90
15259;DHT22;34462;51.368;12.364;2024-02-23T09:35:42;9.90;99.90
15259;DHT22;34462;51.368;12.364;2024-02-23T09:38:11;9.90;99.90
15259;DHT22;34462;51.368;12.364;2024-02-23T09:40:41;10.00;99.90
15259;DHT22;34462;51.368;12.364;2024-02-23T09:43:13;10.00;99.90
15259;DHT22;34462;51.368;12.364;2024-02-23T09:45:45;10.20;99.90
15259;DHT22;34462;51.368;12.364;2024-02-23T09:48:18;10.20;99.90
15259;DHT22;34462;51.368;12.364;2024-02-23T09:50:50;10.30;99.90
15259;DHT22;34462;51.368;12.364;2024-02-23T09:53:20;10.30;99.90
15259;DHT22;34462;51.368;12.364;2024-02-23T09:55:50;10.40;99.90
15259;DHT22;34462;51.368;12.364;2024-02-23T09:58:20;10.30;99.90
15259;DHT22;34462;51.368;12.364;2024-02-23T10:00:53;10.20;99.90
15259;DHT22;34462;51.368;12.364;2024-02-23T10:03:23;10.30;99.90
15259;DHT22;34462;51.368;12.364;2024-02-23T10:05:53;10.30;99.90
15259;DHT22;34462;51.368;12.364;2024-02-23T10:08:21;10.40;99.90
15259;DHT22;34462;51.368;12.364;2024-02-23T10:10:52;10.40;99.90
15259;DHT22;34462;51.368;12.364;2024-02-23T10:13:21;10.40;99.90
15259;DHT22;34462;51.368;12.364;2024-02-23T10:15:52;10.40;99.90
15259;DHT22;34462;51.368;12.364;2024-02-23T10:18:40;10.40;99.90
15259;DHT22;34462;51.368;12.364;2024-02-23T10:21:08;10.30;99.90
15259;DHT22;34462;51.368;12.364;2024-02-23T10:23:37;10.20;99.90
15259;DHT22;34462;51.368;12.364;2024-02-23T10:26:07;10.30;99.90
15259;DHT22;34462;51.368;12.364;2024-02-23T10:28:37;10.30;99.90
15259;DHT22;34462;51.368;12.364;2024-02-23T10:31:06;10.40;99.90
15259;DHT22;34462;51.368;12.364;2024-02-23T10:33:40;10.60;99.90
15259;DHT22;34462;51.368;12.364;2024-02-23T10:36:12;10.40;99.90
15259;DHT22;34462;51.368;12.364;2024-02-23T10:38:45;10.30;99.90
15259;DHT22;34462;51.368;12.364;2024-02-23T10:41:17;10.30;99.90
15259;DHT22;34462;51.368;12.364;2024-02-23T10:43:47;10.50;99.90
15259;DHT22;34462;51.368;12.364;2024-02-23T10:46:18;10.60;99.90
15259;DHT22;34462;51.368;12.364;2024-02-23T10:48:48;10.60;99.90
15259;DHT22;34462;51.368;12.364;2024-02-23T10:51:18;10.70;99.90
15259;DHT22;34462;51.368;12.364;2024-02-23T10:53:49;10.60;99.90
15259;DHT22;34462;51.368;12.364;2024-02-23T10:56:21;10.50;99.90
15259;DHT22;34462;51.368;12.364;2024-02-23T10:58:53;10.40;99.90
15259;DHT22;34462;51.368;12.364;2024-02-23T11:01:22;10.30;99.90
15259;DHT22;34462;51.368;12.364;2024-02-23T11:03:53;10.40;99.90
15259;DHT22;34462;51.368;12.364;2024-02-23T11:06:27;10.40;99.90
15259;DHT22;34462;51.368;12.364;2024-02-23T11:09:05;10.40;99.90
15259;DHT22;34462;51.368;12.364;2024-02-23T11:11:37;10.40;99.90
15259;DHT22;34462;51.368;12.364;2024-02-23T11:14:07;10.40;99.90
15259;DHT22;34462;51.368;12.364;2024-02-23T11:16:39;10.40;99.90
15259;DHT22;34462;51.368;12.364;2024-02-23T11:19:10;10.30;99.90
15259;DHT22;34462;51.368;12.364;2024-02-23T11:21:38;10.30;99.90
15259;DHT22;34462;51.368;12.364;2024-02-23T11:24:07;10.20;99.90
15259;DHT22;34462;51.368;12.364;2024-02-23T11:26:38;10.20;99.90
15259;DHT22;34462;51.368;12.364;2024-02-23T11:29:13;10.20;99.90
15259;DHT22;34462;51.368;12.364;2024-02-23T11:31:46;10.20;99.90
15259;DHT22;34462;51.368;12.364;2024-02-23T11:34:22;10.30;99.90
15259;DHT22;34462;51.368;12.364;2024-02-23T11:36:52;10.30;99.90
15259;DHT22;34462;51.368;12.364;2024-02-23T11:39:21;10.40;99.90
15259;DHT22;34462;51.368;12.364;2024-02-23T11:41:51;10.40;99.90
15259;DHT22;34462;51.368;12.364;2024-02-23T11:44:19;10.30;99.90
15259;DHT22;34462;51.368;12.364;2024-02-23T11:46:47;10.30;99.90
15259;DHT22;34462;51.368;12.364;2024-02-23T11:49:18;10.40;99.90
15259;DHT22;34462;51.368;12.364;2024-02-23T11:51:47;10.40;99.90
15259;DHT22;34462;51.368;12.364;2024-02-23T11:54:16;10.50;99.90
15259;DHT22;34462;51.368;12.364;2024-02-23T11:56:45;10.50;99.90
15259;DHT22;34462;51.368;12.364;2024-02-23T11:59:15;10.50;99.90
15259;DHT22;34462;51.368;12.364;2024-02-23T12:01:43;10.50;99.90
15259;DHT22;34462;51.368;12.364;2024-02-23T12:04:14;10.40;99.90
15259;DHT22;34462;51.368;12.364;2024-02-23T12:06:43;10.40;99.90
15259;DHT22;34462;51.368;12.364;2024-02-23T12:09:13;10.30;99.90
15259;DHT22;34462;51.368;12.364;2024-02-23T12:11:42;10.40;99.90
15259;DHT22;34462;51.368;12.364;2024-02-23T12:14:11;10.50;99.90
15259;DHT22;34462;51.368;12.364;2024-02-23T12:16:41;10.50;99.90
15259;DHT22;34462;51.368;12.364;2024-02-23T12:19:09;10.50;99.90
15259;DHT22;34462;51.368;12.364;2024-02-23T12:21:37;10.40;99.90
15259;DHT22;34462;51.368;12.364;2024-02-23T12:24:07;10.40;99.90
15259;DHT22;34462;51.368;12.364;2024-02-23T12:26:35;10.30;99.90
15259;DHT22;34462;51.368;12.364;2024-02-23T12:29:04;10.40;99.90
15259;DHT22;34462;51.368;12.364;2024-02-23T12:31:33;10.50;99.90
15259;DHT22;34462;51.368;12.364;2024-02-23T12:34:03;10.50;99.90
15259;DHT22;34462;51.368;12.364;2024-02-23T12:36:31;10.50;99.90
15259;DHT22;34462;51.368;12.364;2024-02-23T12:39:02;10.50;99.90
15259;DHT22;34462;51.368;12.364;2024-02-23T12:41:31;10.60;99.90
15259;DHT22;34462;51.368;12.364;2024-02-23T12:43:59;10.60;99.90
15259;DHT22;34462;51.368;12.364;2024-02-23T12:46:28;10.60;99.90
15259;DHT22;34462;51.368;12.364;2024-02-23T12:48:56;10.60;99.90
15259;DHT22;34462;51.368;12.364;2024-02-23T12:51:26;10.50;99.90
15259;DHT22;34462;51.368;12.364;2024-02-23T12:53:55;10.50;99.90
15259;DHT22;34462;51.368;12.364;2024-02-23T12:56:23;10.40;99.90
15259;DHT22;34462;51.368;12.364;2024-02-23T12:58:52;10.40;99.90
15259;DHT22;34462;51.368;12.364;2024-02-23T13:01:21;10.40;99.90
15259;DHT22;34462;51.368;12.364;2024-02-23T13:03:50;10.50;99.90
15259;DHT22;34462;51.368;12.364;2024-02-23T13:06:18;10.50;99.90
15259;DHT22;34462;51.368;12.364;2024-02-23T13:08:48;10.40;99.90
15259;DHT22;34462;51.368;12.364;2024-02-23T13:11:16;10.40;99.90
15259;DHT22;34462;51.368;12.364;2024-02-23T13:13:45;10.40;99.90
15259;DHT22;34462;51.368;12.364;2024-02-23T13:16:14;10.30;99.90
15259;DHT22;34462;51.368;12.364;2024-02-23T13:18:43;10.40;99.90
15259;DHT22;34462;51.368;12.364;2024-02-23T13:21:13;10.40;99.90
15259;DHT22;34462;51.368;12.364;2024-02-23T13:23:42;10.40;99.90
15259;DHT22;34462;51.368;12.364;2024-02-23T13:26:12;10.50;99.90
15259;DHT22;34462;51.368;12.364;2024-02-23T13:28:41;10.30;99.90
15259;DHT22;34462;51.368;12.364;2024-02-23T13:31:11;10.30;99.90
15259;DHT22;34462;51.368;12.364;2024-02-23T13:33:40;10.20;99.90
15259;DHT22;34462;51.368;12.364;2024-02-23T13:36:09;10.20;99.90
15259;DHT22;34462;51.368;12.364;2024-02-23T13:38:37;10.00;99.90
15259;DHT22;34462;51.368;12.364;2024-02-23T13:41:06;10.10;99.90
15259;DHT22;34462;51.368;12.364;2024-02-23T13:43:37;10.20;99.90
15259;DHT22;34462;51.368;12.364;2024-02-23T13:46:06;10.20;99.90
15259;DHT22;34462;51.368;12.364;2024-02-23T13:48:35;10.20;99.90
15259;DHT22;34462;51.368;12.364;2024-02-23T13:51:04;10.20;99.90
15259;DHT22;34462;51.368;12.364;2024-02-23T13:53:33;10.10;99.90
15259;DHT22;34462;51.368;12.364;2024-02-23T13:56:04;10.10;99.90
15259;DHT22;34462;51.368;12.364;2024-02-23T13:58:32;10.10;99.90
15259;DHT22;34462;51.368;12.364;2024-02-23T14:01:02;10.10;99.90
15259;DHT22;34462;51.368;12.364;2024-02-23T14:03:31;10.10;99.90
15259;DHT22;34462;51.368;12.364;2024-02-23T14:05:59;9.80;99.90
15259;DHT22;34462;51.368;12.364;2024-02-23T14:08:28;9.80;99.90
15259;DHT22;34462;51.368;12.364;2024-02-23T14:10:56;9.80;99.90
15259;DHT22;34462;51.368;12.364;2024-02-23T14:13:25;9.90;99.90
15259;DHT22;34462;51.368;12.364;2024-02-23T14:15:53;9.80;99.90
15259;DHT22;34462;51.368;12.364;2024-02-23T14:18:23;9.80;99.90
15259;DHT22;34462;51.368;12.364;2024-02-23T14:20:55;9.70;99.90
15259;DHT22;34462;51.368;12.364;2024-02-23T14:23:23;9.80;99.90
15259;DHT22;34462;51.368;12.364;2024-02-23T14:25:52;9.80;99.90
15259;DHT22;34462;51.368;12.364;2024-02-23T14:28:20;9.80;99.90
15259;DHT22;34462;51.368;12.364;2024-02-23T14:30:49;9.80;99.90
15259;DHT22;34462;51.368;12.364;2024-02-23T14:33:18;9.80;99.90
15259;DHT22;34462;51.368;12.364;2024-02-23T14:35:49;9.80;99.90
15259;DHT22;34462;51.368;12.364;2024-02-23T14:38:17;9.80;99.90
15259;DHT22;34462;51.368;12.364;2024-02-23T14:40:46;9.70;99.90
15259;DHT22;34462;51.368;12.364;2024-02-23T14:43:14;9.80;99.90
15259;DHT22;34462;51.368;12.364;2024-02-23T14:45:43;9.70;99.90
15259;DHT22;34462;51.368;12.364;2024-02-23T14:48:11;9.70;99.90
15259;DHT22;34462;51.368;12.364;2024-02-23T14:50:40;9.60;99.90
15259;DHT22;34462;51.368;12.364;2024-02-23T14:53:10;9.60;99.90
15259;DHT22;34462;51.368;12.364;2024-02-23T14:55:39;9.60;99.90
15259;DHT22;34462;51.368;12.364;2024-02-23T14:58:07;9.50;99.90
15259;DHT22;34462;51.368;12.364;2024-02-23T15:00:36;9.50;99.90
15259;DHT22;34462;51.368;12.364;2024-02-23T15:03:04;9.50;99.90
15259;DHT22;34462;51.368;12.364;2024-02-23T15:05:36;9.50;99.90
15259;DHT22;34462;51.368;12.364;2024-02-23T15:10:36;9.50;99.90
15259;DHT22;34462;51.368;12.364;2024-02-23T15:13:04;9.40;99.90
15259;DHT22;34462;51.368;12.364;2024-02-23T15:15:32;9.50;99.90
15259;DHT22;34462;51.368;12.364;2024-02-23T15:18:07;9.40;99.90
15259;DHT22;34462;51.368;12.364;2024-02-23T15:20:36;9.40;99.90
15259;DHT22;34462;51.368;12.364;2024-02-23T15:23:04;9.30;99.90
15259;DHT22;34462;51.368;12.364;2024-02-23T15:25:33;9.20;99.90
15259;DHT22;34462;51.368;12.364;2024-02-23T15:28:07;9.20;99.90
15259;DHT22;34462;51.368;12.364;2024-02-23T15:30:35;9.10;99.90
15259;DHT22;34462;51.368;12.364;2024-02-23T15:33:04;9.10;99.90
15259;DHT22;34462;51.368;12.364;2024-02-23T15:35:32;9.10;99.90
15259;DHT22;34462;51.368;12.364;2024-02-23T15:38:01;9.10;99.90